Tuesday, January 23, 2018, 7:24 AM EST
Back to Local

KIJD, Willimantic Windham Airport

Location: North Windham, CT, United States Lat: 41.75
Local Time: 7:24 AM EST (12:24 GMT) Lon: -72.183
Time Zone: US/Eastern Elev: 246 ft

Show me the last for .
Show Decoded

2018-01-23 06:52 METAR KIJD 231152Z AUTO 04003KT 1/2SM FG VV003 04/03 A2991 RMK AO2 SLP128 60000
                 T00390033 10039 20028 56026 =
2018-01-23 05:52 METAR KIJD 231052Z AUTO 00000KT 1/2SM FG VV003 04/03 A2993 RMK AO2 SLP137
                 T00390033 =
2018-01-23 05:40 METAR KIJD 231040Z AUTO 00000KT 1/2SM FG VV003 03/03 A2994 RMK AO2 T00330028 =
2018-01-23 04:52 METAR KIJD 230952Z AUTO 00000KT 1/4SM FG VV003 03/03 A2996 RMK AO2 SLP144
                 T00330028 =
2018-01-23 04:44 METAR KIJD 230944Z AUTO 00000KT 1/2SM FG VV003 03/03 A2997 RMK AO2 T00280028 =
2018-01-23 04:04 METAR KIJD 230904Z AUTO 04003KT 1/4SM FG VV003 03/03 A2997 RMK AO2 T00330028 =
2018-01-23 03:52 METAR KIJD 230852Z AUTO 00000KT 1/2SM FG VV003 03/03 A2998 RMK AO2 RAB15E42
                 SLP154 P0000 60000 T00330028 58037 =
2018-01-23 03:39 METAR KIJD 230839Z AUTO 00000KT 1/2SM -RA FG VV003 03/03 A2999 RMK AO2 RAB15
                 P0000 T00330028 =
2018-01-23 02:52 METAR KIJD 230752Z AUTO 36004KT 1/4SM FG VV002 03/03 A3002 RMK AO2 SLP168
                 T00330028 =
2018-01-23 01:52 METAR KIJD 230652Z AUTO 00000KT 1/4SM FG VV002 03/03 A3006 RMK AO2 SLP180
                 T00330028 =
2018-01-23 00:52 METAR KIJD 230552Z AUTO 02004KT 1/4SM FG VV002 03/02 A3009 RMK AO2 SLP191
                 T00280022 10039 20028 58014 =
2018-01-23 00:19 METAR KIJD 230519Z AUTO 00000KT 1/4SM FG VV003 03/03 A3012 RMK AO2 T00280028 =
2018-01-22 23:52 METAR KIJD 230452Z AUTO 00000KT 1/2SM FG VV003 03/03 A3012 RMK AO2 SLP199
                 T00330028 400560000 =
2018-01-22 22:52 METAR KIJD 230352Z AUTO 00000KT 3/4SM BR OVC002 03/02 A3013 RMK AO2 SLP206
                 T00330022 =
2018-01-22 22:49 METAR KIJD 230349Z AUTO 00000KT 3/4SM BR OVC002 03/02 A3014 RMK AO2 =
2018-01-22 21:52 METAR KIJD 230252Z AUTO 07003KT 1 1/2SM BR OVC004 03/03 A3017 RMK AO2 SLP217
                 T00330028 58017 =
2018-01-22 21:32 METAR KIJD 230232Z AUTO 06003KT 1 3/4SM BR OVC004 03/03 A3018 RMK AO2 T00330028
                 =
2018-01-22 21:08 METAR KIJD 230208Z AUTO 06004KT 2 1/2SM BR OVC004 03/02 A3019 RMK AO2 T00330022
                 =
2018-01-22 20:52 METAR KIJD 230152Z AUTO 05005KT 3SM BR OVC004 03/02 A3019 RMK AO2 SLP225
                 T00330022 =
2018-01-22 20:20 METAR KIJD 230120Z AUTO 05004KT 4SM BR OVC004 03/03 A3020 RMK AO2 T00330028 =
2018-01-22 19:52 METAR KIJD 230052Z AUTO 06005KT 5SM BR OVC005 03/03 A3021 RMK AO2 SLP230
                 T00330028 =
2018-01-22 18:52 METAR KIJD 222352Z AUTO 07005KT 5SM BR OVC005 03/02 A3022 RMK AO2 SLP234
                 T00330022 10056 20033 55000 =
2018-01-22 17:52 METAR KIJD 222252Z AUTO 08005KT 6SM BR OVC006 04/02 A3022 RMK AO2 SLP234
                 T00390022 =
2018-01-22 16:52 METAR KIJD 222152Z AUTO 06006KT 6SM BR OVC006 04/02 A3021 RMK AO2 SLP233
                 T00390022 =
2018-01-22 15:52 METAR KIJD 222052Z AUTO 07008KT 5SM BR OVC006 04/03 A3022 RMK AO2 SLP234
                 T00390028 55000 =
2018-01-22 14:52 METAR KIJD 221952Z AUTO 06010KT 4SM BR OVC007 04/03 A3020 RMK AO2 SLP230
                 T00440028 =
2018-01-22 14:32 METAR KIJD 221932Z AUTO 06007KT 5SM BR OVC009 04/03 A3021 RMK AO2 T00440028 =
2018-01-22 13:52 METAR KIJD 221852Z AUTO 06010KT 6SM HZ BKN010 OVC016 06/03 A3021 RMK AO2 SLP231
                 T00560028 =
2018-01-22 12:52 METAR KIJD 221752Z AUTO 05003KT 5SM BR BKN011 OVC020 06/03 A3022 RMK AO2 CIG
                 007V013 SLP234 60000 I6000 T00560033 10056 20011 56015 =
2018-01-22 12:32 METAR KIJD 221732Z AUTO 06005KT 5SM BR BKN011 OVC019 05/03 A3021 RMK AO2
                 T00500033 =
2018-01-22 11:52 METAR KIJD 221652Z AUTO 00000KT 5SM BR OVC017 06/03 A3022 RMK AO2 SLP236
                 T00560033 =
2018-01-22 11:07 METAR KIJD 221607Z AUTO 08004KT 3SM BR FEW007 OVC017 04/03 A3023 RMK AO2
                 T00440033 =
2018-01-22 10:52 METAR KIJD 221552Z AUTO 08005KT 1SM BR FEW007 OVC016 03/03 A3024 RMK AO2 SLP241
                 T00330028 =
2018-01-22 10:36 METAR KIJD 221536Z AUTO 02004KT 1SM BR FEW005 SCT008 OVC016 03/02 A3025 RMK AO2
                 T00330022 =
2018-01-22 10:23 METAR KIJD 221523Z AUTO 02004KT 3/4SM BR FEW003 SCT007 OVC016 03/02 A3025 RMK
                 AO2 T00280017 =
2018-01-22 09:59 METAR KIJD 221459Z AUTO 00000KT 3/4SM BR SCT007 OVC010 02/02 A3027 RMK AO2
                 T00220017 =
2018-01-22 09:52 METAR KIJD 221452Z AUTO 00000KT 1SM BR OVC010 02/02 A3026 RMK AO2 RAB03E17 CIG
                 007V013 SLP250 P0000 60000 I1000 I3000 T00220017 50013 =
2018-01-22 09:50 METAR KIJD 221450Z AUTO 00000KT 1SM BR OVC010 02/01 A3026 RMK AO2 RAB03E17 CIG
                 007V013 P0000 I1000 =
2018-01-22 09:31 METAR KIJD 221431Z AUTO 05003KT 1 1/2SM BR BKN008 OVC012 02/01 A3026 RMK AO2
                 RAB03E17 P0000 T00170011 =
2018-01-22 08:52 METAR KIJD 221352Z AUTO 00000KT 2 1/2SM BR BKN009 OVC021 02/01 A3025 RMK AO2
                 RAB35E48 CIG 008V013 SLP244 P0000 T00170006 =
2018-01-22 08:41 METAR KIJD 221341Z AUTO 00000KT 2 1/2SM -RA BR OVC009 02/01 A3024 RMK AO2 RAB35
                 CIG 008V013 P0000 T00170006 =
2018-01-22 08:23 METAR KIJD 221323Z AUTO 00000KT 2 1/2SM BR OVC010 02/01 A3023 RMK AO2 CIG
                 008V013 T00170006 =
2018-01-22 07:52 METAR KIJD 221252Z AUTO 00000KT 3SM BR OVC011 01/00 A3022 RMK AO2 RAE1155 SLP237
                 P0000 T00110000 =
2018-01-22 07:48 METAR KIJD 221248Z AUTO 00000KT 2 1/2SM BR OVC011 01/00 A3022 RMK AO2 RAE1155
                 P0000 =

Support USWX by starting your Amazon purchase here.